WetterOnline ( https://www.wetteronline.de )

Wetter aktuell Westerwald

Aktuelles Wetter: Bad Marienberg (555m)

6-stündlich | Neueste Meldungen
Ortszeit Temperatur Wetter
Sa, 16.11. 19:00 1.5° C wolkenlos
Sa, 16.11. 13:00 4.0° C leicht bewölkt
Sa, 16.11. 7:00 0.1° C wolkig
Sa, 16.11. 1:00 1.7° C bewölkt
Fr, 15.11. 19:00 1.7° C bewölkt
Fr, 15.11. 13:00 3.6° C leicht bewölkt
Fr, 15.11. 7:00 0.9° C bedeckt
Fr, 15.11. 1:00 1.4° C bedeckt
Ortszeit Temperatur Wetter
Sa, 16.11. 22:30 1.1° C wolkenlos
Sa, 16.11. 22:20 1.1° C wolkenlos
Sa, 16.11. 22:10 1.4° C wolkenlos
Sa, 16.11. 22:00 1.5° C fast wolkenlos
Sa, 16.11. 21:50 1.5° C fast wolkenlos
Sa, 16.11. 21:40 1.3° C fast wolkenlos
Sa, 16.11. 21:30 1.2° C wolkig
Sa, 16.11. 21:00 1.6° C bedeckt
Sa, 16.11. 20:30 1.3° C wolkig
Sa, 16.11. 20:00 1.2° C leicht bewölkt
Sa, 16.11. 19:30 1.4° C wolkig
Ortszeit Relative Feuchte Sichtweite
Sa, 16.11. 19:00 90% 19 km
Sa, 16.11. 13:00 73% 55 km
Sa, 16.11. 7:00 95% 18 km
Sa, 16.11. 1:00 92% 14 km
Fr, 15.11. 19:00 91% 15 km
Fr, 15.11. 13:00 80% 30 km
Fr, 15.11. 7:00 83% 22 km
Fr, 15.11. 1:00 83% 30 km
Ortszeit Relative Feuchte Sichtweite
Sa, 16.11. 22:30 99% 3.0 km
Sa, 16.11. 22:20 99% -
Sa, 16.11. 22:10 99% -
Sa, 16.11. 22:00 98% 3.2 km
Sa, 16.11. 21:50 98% -
Sa, 16.11. 21:40 99% -
Sa, 16.11. 21:30 99% 3.7 km
Sa, 16.11. 21:00 100% 1.5 km
Sa, 16.11. 20:30 98% 3.3 km
Sa, 16.11. 20:00 94% 10 km
Sa, 16.11. 19:30 91% 16 km
Ortszeit Niederschlagsmenge Niederschlagsart
Sa, 16.11. 19:00 0.0 l/m2 in 12 Std. -
Sa, 16.11. 13:00 0.0 l/m2 in 6 Std. -
Sa, 16.11. 7:00 0.0 l/m2 in 12 Std. -
Sa, 16.11. 1:00 0.0 l/m2 in 6 Std. -
Fr, 15.11. 19:00 0.0 l/m2 in 12 Std. -
Fr, 15.11. 13:00 0.0 l/m2 in 6 Std. -
Fr, 15.11. 7:00 0.0 l/m2 in 12 Std. -
Fr, 15.11. 1:00 0.0 l/m2 in 6 Std. -
Ortszeit Niederschlagsmenge Niederschlagsart
Sa, 16.11. 22:30 0.0 l/m2 in 1 Std. -
Sa, 16.11. 22:20 keine Meldung -
Sa, 16.11. 22:10 keine Meldung -
Sa, 16.11. 22:00 0.0 l/m2 in 1 Std. -
Sa, 16.11. 21:50 keine Meldung -
Sa, 16.11. 21:40 keine Meldung -
Sa, 16.11. 21:30 0.0 l/m2 in 1 Std. -
Sa, 16.11. 21:00 0.0 l/m2 in 1 Std. -
Sa, 16.11. 20:30 0.0 l/m2 in 1 Std. -
Sa, 16.11. 20:00 0.0 l/m2 in 1 Std. -
Sa, 16.11. 19:30 0.0 l/m2 in 1 Std. -
Ortszeit Stärke Spitze Richtung
km/h Bft. km/h Grad Sektor
Sa, 16.11. 19:00 14 3 25 140° SO
Sa, 16.11. 13:00 13 3 24 210° SW
Sa, 16.11. 7:00 4 1 18 230° SW
Sa, 16.11. 1:00 4 1 14 260° W
Fr, 15.11. 19:00 7 2 32 150° SO
Fr, 15.11. 13:00 22 4 40 130° SO
Fr, 15.11. 7:00 22 4 46 110° O
Fr, 15.11. 1:00 17 3 43 80° O
Ortszeit Stärke Spitze Richtung
km/h Bft. km/h Grad Sektor
Sa, 16.11. 22:30 7 2 13 140° SO
Sa, 16.11. 22:20 7 2 - 140° SO
Sa, 16.11. 22:10 9 2 - 150° SO
Sa, 16.11. 22:00 9 2 19 160° S
Sa, 16.11. 21:50 9 2 - 160° S
Sa, 16.11. 21:40 6 1 - 160° S
Sa, 16.11. 21:30 7 2 18 160° S
Sa, 16.11. 21:00 15 3 26 150° SO
Sa, 16.11. 20:30 17 3 24 140° SO
Sa, 16.11. 20:00 13 3 22 140° SO
Sa, 16.11. 19:30 11 2 22 150° SO
Ortszeit Untergrenze Bedeckung Gattung
total tief tief mittel hoch
Sa, 16.11. 19:00 - 0/8 0/8 - - -
Sa, 16.11. 13:00 3900 m 2/8 2/8 - - -
Sa, 16.11. 7:00 6600 m 6/8 2/8 - - -
Sa, 16.11. 1:00 1410 m 7/8 7/8 - - -
Fr, 15.11. 19:00 3900 m 7/8 7/8 - - -
Fr, 15.11. 13:00 510 m 6/8 1/8 - - -
Fr, 15.11. 7:00 4500 m 8/8 8/8 - - -
Fr, 15.11. 1:00 3300 m 8/8 8/8 - - -
Ortszeit Bedeckungsgrad in Achtel und Wolkenuntergrenze
Sa, 16.11. 22:30 keine Wolken
Sa, 16.11. 22:20 keine Wolken
Sa, 16.11. 22:10 keine Wolken
Sa, 16.11. 22:00 1(120m)
Sa, 16.11. 21:50 1(120m)
Sa, 16.11. 21:40 1(120m)
Sa, 16.11. 21:30 5(90m)
Sa, 16.11. 21:00 8(30m)
Sa, 16.11. 20:30 5(90m) 5(210m)
Sa, 16.11. 20:00 1(180m)
Sa, 16.11. 19:30 5(2100m)
Ortszeit Luftdruck NN (hPa) Tendenz (hPa in 3 Std.)
Sa, 16.11. 19:00 1013 + 1,8
Sa, 16.11. 13:00 1010 + 1,3
Sa, 16.11. 7:00 1007 + 1,1
Sa, 16.11. 1:00 1006 + 0,1
Fr, 15.11. 19:00 1004 + 1,8
Fr, 15.11. 13:00 1001 + 2,5
Fr, 15.11. 7:00 998 - 1,9
Fr, 15.11. 1:00 1002 - 0,9
Ortszeit Luftdruck NN (hPa) Tendenz (hPa in 3 Std.)
Sa, 16.11. 22:30 1013 + 0,1
Sa, 16.11. 22:20 1013 keine Meldung
Sa, 16.11. 22:10 1013 keine Meldung
Sa, 16.11. 22:00 1013 + 0,1
Sa, 16.11. 21:50 1013 keine Meldung
Sa, 16.11. 21:40 1013 keine Meldung
Sa, 16.11. 21:30 1013 + 0,7
Sa, 16.11. 21:00 1013 + 1,2
Sa, 16.11. 20:30 1013 + 1,6
Sa, 16.11. 20:00 1013 + 1,8
Sa, 16.11. 19:30 1013 + 1,8
Ortszeit Schneehöhe (cm)
Sa, 16.11. 19:00 0
Sa, 16.11. 13:00 0
Sa, 16.11. 7:00 0
Sa, 16.11. 1:00 0
Fr, 15.11. 19:00 0
Fr, 15.11. 13:00 0
Fr, 15.11. 7:00 0
Fr, 15.11. 1:00 0
Ortszeit Schneehöhe (cm)
Sa, 16.11. 22:30 0
Sa, 16.11. 22:20 0
Sa, 16.11. 22:10 0
Sa, 16.11. 22:00 0
Sa, 16.11. 21:50 0
Sa, 16.11. 21:40 0
Sa, 16.11. 21:30 0
Sa, 16.11. 21:00 0
Sa, 16.11. 20:30 0
Sa, 16.11. 20:00 0
Sa, 16.11. 19:30 0
Link zu dieser Seite / Seite empfehlen

Das Wetter in ...